Time;durP1;ratioP1;P1;durP2;ratioP2;P2;SDS_P1;SDS_P2;PMS_P1;PMS_P2;Temp;Humidity;BMP_temperature;BMP_pressure;BME280_temperature;BME280_humidity;BME280_pressure;Samples;Min_cycle;Max_cycle;Signal;HPM_P1;HPM_P2
2023/06/02 00:00:14;;;;;;;10.07;6.30;;;;;;;10.34;76.69;101016.53;6007580;23;20372;-79
2023/06/02 00:02:41;;;;;;;6.97;6.38;;;;;;;11.11;76.95;101131.94;6027538;23;20038;-76
2023/06/02 00:05:08;;;;;;;6.40;5.82;;;;;;;11.79;76.93;101244.34;6009684;23;20767;-76
2023/06/02 00:07:37;;;;;;;8.20;6.82;;;;;;;11.53;76.97;101207.00;6032252;23;20102;-77
2023/06/02 00:10:04;;;;;;;6.78;6.20;;;;;;;10.77;76.96;101090.66;6029596;23;20474;-78
2023/06/02 00:12:31;;;;;;;6.30;5.80;;;;;;;10.18;76.52;101003.22;6034509;23;20027;-77
2023/06/02 00:14:57;;;;;;;15.65;6.03;;;;;;;11.72;77.68;101261.31;6005108;23;20055;-78
2023/06/02 00:17:24;;;;;;;6.13;5.55;;;;;;;11.98;77.97;101305.66;6007551;23;20648;-79
2023/06/02 00:19:51;;;;;;;6.75;6.15;;;;;;;11.81;76.93;101273.16;6029517;23;20640;-79
2023/06/02 00:22:17;;;;;;;7.35;6.72;;;;;;;11.50;76.10;101196.63;6002888;23;20098;-79
2023/06/02 00:24:44;;;;;;;8.38;6.82;;;;;;;11.97;75.55;101269.78;6033379;23;20022;-78
2023/06/02 00:27:10;;;;;;;6.40;5.90;;;;;;;11.91;75.87;101259.56;6001641;23;20031;-79
2023/06/02 00:29:37;;;;;;;5.95;5.53;;;;;;;11.18;75.81;101154.38;6034288;23;20022;-77
2023/06/02 00:32:04;;;;;;;5.97;5.55;;;;;;;10.94;75.77;101130.13;6007439;23;20035;-78
2023/06/02 00:34:30;;;;;;;6.38;5.88;;;;;;;10.81;76.78;101136.00;6031295;23;20036;-78
2023/06/02 00:36:57;;;;;;;7.00;6.40;;;;;;;11.77;75.86;101270.72;6004054;23;20034;-78
2023/06/02 00:39:24;;;;;;;12.02;6.68;;;;;;;11.19;74.66;101165.72;6039929;23;20045;-81
2023/06/02 00:41:51;;;;;;;8.07;7.28;;;;;;;11.14;74.71;101162.44;6017594;23;20019;-78
2023/06/02 00:44:18;;;;;;;7.70;6.88;;;;;;;11.62;74.92;101233.78;6030227;23;20098;-79
2023/06/02 00:46:44;;;;;;;8.13;7.38;;;;;;;11.18;74.03;101166.63;6006893;23;20694;-79
2023/06/02 00:49:11;;;;;;;8.68;7.70;;;;;;;11.59;73.72;101237.41;6009062;23;20539;-78
2023/06/02 00:51:41;;;;;;;11.75;6.95;;;;;;;11.55;73.29;101220.09;6017981;23;20023;-80
2023/06/02 00:54:11;;;;;;;;;;;;;;;11.46;73.43;101213.47;6006382;23;20533;-78
2023/06/02 00:56:39;;;;;;;10.52;8.20;;;;;;;11.46;73.61;101217.88;6007011;23;19921;-77
2023/06/02 00:59:06;;;;;;;11.48;8.70;;;;;;;11.46;73.63;101217.88;6005101;23;20042;-79
2023/06/02 01:01:33;;;;;;;10.77;8.40;;;;;;;11.42;73.68;101216.31;6030870;23;20106;-78
2023/06/02 01:03:59;;;;;;;13.63;8.82;;;;;;;9.91;73.87;100992.22;6005954;23;20042;-80
2023/06/02 01:06:34;;;;;;;12.15;7.97;;;;;;;11.03;74.08;101178.72;6041366;23;20074;-78
2023/06/02 01:09:13;;;;;;;13.27;8.43;;;;;;;11.38;74.84;101244.53;6004323;23;20502;-79
2023/06/02 01:11:39;;;;;;;12.73;8.20;;;;;;;10.61;73.97;101114.13;6033294;23;20626;-77
2023/06/02 01:14:08;;;;;;;11.35;8.13;;;;;;;10.75;74.35;101158.13;6005484;23;20102;-77
2023/06/02 01:16:35;;;;;;;10.52;7.82;;;;;;;10.27;73.94;101057.06;6031529;23;20039;-78
2023/06/02 01:19:02;;;;;;;8.85;7.75;;;;;;;11.30;73.73;101215.97;6009386;23;20039;-79
2023/06/02 01:21:34;;;;;;;9.15;8.27;;;;;;;11.30;73.78;101226.47;6029364;23;20011;-77
2023/06/02 01:24:00;;;;;;;17.33;8.57;;;;;;;11.27;73.56;101213.50;6004382;23;20015;-78
2023/06/02 01:26:29;;;;;;;12.52;8.35;;;;;;;10.67;73.45;101124.34;6040979;23;20038;-77
2023/06/02 01:28:55;;;;;;;8.57;7.78;;;;;;;11.23;74.27;101227.72;6003780;23;20027;-78
2023/06/02 01:31:26;;;;;;;9.98;8.85;;;;;;;11.20;74.33;101214.69;6035683;23;20033;-79
2023/06/02 01:34:03;;;;;;;9.65;8.23;;;;;;;11.03;74.42;101197.09;6004759;23;20055;-79
2023/06/02 01:36:34;;;;;;;14.75;9.27;;;;;;;11.13;73.54;101213.28;6000591;23;20519;-79
2023/06/02 01:39:02;;;;;;;10.52;8.57;;;;;;;11.13;73.38;101203.63;6030407;23;20034;-79
2023/06/02 01:41:32;;;;;;;9.32;7.97;;;;;;;10.32;73.20;101057.72;6005292;23;20091;-77
2023/06/02 01:44:02;;;;;;;10.23;9.00;;;;;;;10.78;72.59;101129.09;6031910;23;20073;-79
2023/06/02 01:46:29;;;;;;;10.40;8.80;;;;;;;11.17;72.63;101186.81;6007414;23;20025;-79
2023/06/02 01:48:56;;;;;;;8.48;7.60;;;;;;;10.50;71.72;101056.91;6032114;23;20015;-77
2023/06/02 01:51:22;;;;;;;10.43;8.05;;;;;;;9.89;72.09;100967.84;6005770;23;20731;-77
2023/06/02 01:53:48;;;;;;;10.27;7.93;;;;;;;11.03;72.34;101193.63;6053186;23;20450;-75
2023/06/02 01:56:15;;;;;;;8.15;7.07;;;;;;;9.87;72.60;101024.75;6008401;23;20090;-77
2023/06/02 01:58:41;;;;;;;9.20;8.30;;;;;;;10.67;72.61;101147.97;6015654;23;20031;-78
2023/06/02 02:01:08;;;;;;;9.07;7.78;;;;;;;10.15;73.16;101061.06;6033321;23;20019;-78
2023/06/02 02:03:37;;;;;;;8.77;7.93;;;;;;;10.80;72.93;101174.50;6012049;23;20052;-77
2023/06/02 02:06:03;;;;;;;11.80;7.85;;;;;;;10.94;73.23;101208.91;6034514;23;20033;-78
2023/06/02 02:08:32;;;;;;;20.25;8.23;;;;;;;10.59;73.24;101136.97;6008772;23;20036;-78
2023/06/02 02:11:00;;;;;;;11.70;8.07;;;;;;;10.58;73.52;101145.75;6052202;23;20031;-77
2023/06/02 02:13:27;;;;;;;11.10;7.97;;;;;;;10.88;73.80;101213.56;6002180;23;20462;-77
2023/06/02 02:15:53;;;;;;;13.50;8.10;;;;;;;10.67;73.03;101165.50;6026397;23;20623;-78
2023/06/02 02:18:20;;;;;;;10.32;8.90;;;;;;;9.27;72.00;100912.06;6011897;23;20831;-75
2023/06/02 02:20:47;;;;;;;12.57;9.75;;;;;;;9.46;71.55;100944.41;6036995;23;20109;-76
2023/06/02 02:23:13;;;;;;;10.05;9.02;;;;;;;10.85;71.71;101190.06;6005885;23;20034;-77
2023/06/02 02:25:40;;;;;;;14.00;9.52;;;;;;;9.57;71.30;100954.41;6011624;23;20360;-78
2023/06/02 02:28:06;;;;;;;10.38;8.88;;;;;;;10.89;71.75;101171.47;6005817;23;20031;-78
2023/06/02 02:30:33;;;;;;;9.20;8.30;;;;;;;10.04;71.23;101039.72;6010782;23;20025;-77
2023/06/02 02:33:02;;;;;;;10.13;8.75;;;;;;;10.84;71.88;101175.22;6001705;23;20633;-79
2023/06/02 02:35:29;;;;;;;9.77;8.52;;;;;;;10.63;71.99;101159.53;6031140;23;20764;-78
2023/06/02 02:37:56;;;;;;;10.55;8.32;;;;;;;10.00;71.97;101039.00;6000429;23;20050;-78
2023/06/02 02:40:23;;;;;;;12.05;8.98;;;;;;;9.97;72.10;101041.78;6028253;23;20086;-78
2023/06/02 02:42:49;;;;;;;9.45;7.82;;;;;;;9.59;71.53;100973.53;6007089;23;20934;-76
2023/06/02 02:45:16;;;;;;;10.00;8.23;;;;;;;10.52;71.65;101133.78;6025683;23;20100;-77
2023/06/02 02:47:43;;;;;;;13.05;8.68;;;;;;;10.24;71.85;101100.00;6011015;23;20109;-78
2023/06/02 02:50:09;;;;;;;9.90;8.00;;;;;;;10.80;71.78;101187.63;6006542;23;20580;-78
2023/06/02 02:52:36;;;;;;;11.57;8.82;;;;;;;9.95;71.56;101051.47;5997543;23;20202;-79
2023/06/02 02:55:03;;;;;;;10.90;8.20;;;;;;;10.59;72.13;101165.84;6007306;23;20078;-78
2023/06/02 02:57:31;;;;;;;11.02;8.63;;;;;;;10.57;71.58;101170.31;6028386;23;20023;-78
2023/06/02 02:59:58;;;;;;;12.15;9.10;;;;;;;10.75;71.88;101211.47;6000851;23;20099;-79
2023/06/02 03:02:24;;;;;;;10.07;8.20;;;;;;;10.75;72.03;101194.88;6007156;23;20025;-79
2023/06/02 03:04:54;;;;;;;9.70;7.88;;;;;;;9.66;71.79;101019.53;6029307;23;20364;-77
2023/06/02 03:07:20;;;;;;;10.35;7.45;;;;;;;10.61;71.99;101176.28;5999776;23;20031;-78
2023/06/02 03:09:49;;;;;;;9.02;8.00;;;;;;;10.71;72.06;101190.69;6038403;23;20032;-78
2023/06/02 03:12:15;;;;;;;9.43;8.50;;;;;;;10.69;72.55;101201.25;6005740;23;20027;-79
2023/06/02 03:14:42;;;;;;;9.43;8.30;;;;;;;10.69;72.23;101197.78;6032379;23;20089;-78
2023/06/02 03:17:08;;;;;;;8.18;7.47;;;;;;;10.05;72.11;101104.38;6005893;23;20031;-77
2023/06/02 03:19:35;;;;;;;9.52;7.65;;;;;;;9.17;71.75;100951.72;6057205;23;20023;-79
2023/06/02 03:22:02;;;;;;;19.58;8.95;;;;;;;9.28;72.74;100987.06;6005774;23;20094;-78
2023/06/02 03:24:29;;;;;;;10.90;8.93;;;;;;;9.26;71.80;101010.75;6034355;23;20109;-76
2023/06/02 03:26:56;;;;;;;9.40;8.50;;;;;;;10.49;72.03;101198.66;6025754;23;20025;-77
2023/06/02 03:29:22;;;;;;;13.23;7.10;;;;;;;9.77;72.77;101097.69;6015838;23;20808;-77
2023/06/02 03:31:54;;;;;;;12.48;9.07;;;;;;;10.48;73.37;101226.66;6009528;23;20616;-77
2023/06/02 03:34:22;;;;;;;11.67;9.23;;;;;;;9.67;72.83;101078.03;6030755;23;20096;-77
2023/06/02 03:36:48;;;;;;;17.52;8.25;;;;;;;10.47;72.30;101211.84;6011728;23;20081;-77
2023/06/02 03:39:15;;;;;;;9.38;8.38;;;;;;;9.06;72.10;100984.50;6036150;23;20034;-76
2023/06/02 03:41:41;;;;;;;12.63;7.78;;;;;;;10.47;72.35;101211.00;6004296;23;20050;-77
2023/06/02 03:44:08;;;;;;;8.45;7.65;;;;;;;10.40;72.11;101199.91;6033602;23;20033;-77
2023/06/02 03:46:34;;;;;;;9.57;7.97;;;;;;;10.03;72.56;101143.75;6009307;23;20031;-77
2023/06/02 03:49:02;;;;;;;8.80;7.25;;;;;;;10.34;72.18;101195.78;6028170;23;20027;-78
2023/06/02 03:51:28;;;;;;;11.75;7.80;;;;;;;9.63;72.23;101084.31;6005278;23;20562;-77
2023/06/02 03:53:55;;;;;;;9.73;8.45;;;;;;;9.95;72.52;101148.47;6000806;23;20457;-76
2023/06/02 03:56:22;;;;;;;10.43;8.30;;;;;;;9.28;72.53;101074.38;6010090;23;20030;-77
2023/06/02 03:58:48;;;;;;;10.70;8.57;;;;;;;10.29;72.59;101213.47;6005510;23;20089;-78
2023/06/02 04:01:16;;;;;;;21.80;9.48;;;;;;;9.52;72.17;101082.13;6010593;23;20085;-77
2023/06/02 04:03:42;;;;;;;14.55;9.73;;;;;;;9.17;71.87;101048.59;6005051;23;20034;-77
2023/06/02 04:06:09;;;;;;;21.38;9.00;;;;;;;10.05;71.40;101155.03;6034190;23;20071;-76
2023/06/02 04:08:36;;;;;;;15.02;9.45;;;;;;;10.28;71.83;101192.53;6010359;23;20051;-77
2023/06/02 04:11:03;;;;;;;12.15;8.93;;;;;;;10.27;70.76;101177.72;5997717;23;20082;-76
2023/06/02 04:13:30;;;;;;;11.52;8.57;;;;;;;9.96;71.17;101166.78;6012919;23;20515;-76
2023/06/02 04:15:58;;;;;;;10.40;9.05;;;;;;;10.21;71.30;101183.25;6019610;23;20024;-79
2023/06/02 04:18:24;;;;;;;10.73;7.75;;;;;;;10.22;70.73;101171.81;6029932;23;20094;-77
2023/06/02 04:20:51;;;;;;;8.63;7.82;;;;;;;10.22;70.54;101174.44;6026580;23;20022;-76
2023/06/02 04:23:17;;;;;;;8.25;7.43;;;;;;;9.70;69.86;101077.88;6004951;23;20041;-77
2023/06/02 04:25:43;;;;;;;8.60;7.78;;;;;;;9.88;70.18;101134.78;6040124;23;20010;-77
2023/06/02 04:28:10;;;;;;;11.45;6.97;;;;;;;9.04;71.32;101018.63;6009289;23;20034;-77
2023/06/02 04:30:39;;;;;;;9.05;7.93;;;;;;;10.02;71.07;101172.66;6034487;23;20023;-76
2023/06/02 04:33:06;;;;;;;9.00;8.07;;;;;;;10.23;70.46;101192.75;6004509;23;20095;-76
2023/06/02 04:35:33;;;;;;;16.85;7.47;;;;;;;9.93;70.13;101131.97;6006088;23;20027;-77
2023/06/02 04:37:59;;;;;;;7.78;7.07;;;;;;;9.10;70.61;101009.63;6031570;23;20014;-77
2023/06/02 04:40:26;;;;;;;8.13;6.30;;;;;;;10.06;70.90;101164.59;6009882;23;20692;-78
2023/06/02 04:42:52;;;;;;;10.43;7.43;;;;;;;9.17;69.79;101009.34;6036441;23;20031;-79
2023/06/02 04:45:20;;;;;;;8.90;7.80;;;;;;;10.06;69.85;101135.75;6013627;23;20094;-76
2023/06/02 04:47:47;;;;;;;6.45;5.95;;;;;;;8.72;68.98;100899.53;6031663;23;20034;-76
2023/06/02 04:50:14;;;;;;;10.13;7.80;;;;;;;8.89;68.99;100917.16;6014069;23;20031;-78
2023/06/02 04:52:42;;;;;;;9.20;6.78;;;;;;;10.33;68.75;101138.97;6031390;23;20033;-77
2023/06/02 04:55:10;;;;;;;7.72;6.95;;;;;;;10.12;69.10;101150.38;6011542;23;20023;-75
2023/06/02 04:57:37;;;;;;;13.75;7.65;;;;;;;10.24;69.55;101194.44;6025948;23;20031;-77
2023/06/02 05:00:06;;;;;;;10.38;8.25;;;;;;;10.28;69.53;101176.78;6032942;23;20098;-77
2023/06/02 05:02:33;;;;;;;7.68;7.07;;;;;;;10.35;69.74;101187.00;6034460;23;20401;-77
2023/06/02 05:04:59;;;;;;;8.25;7.45;;;;;;;9.03;70.80;100997.75;6011727;23;20019;-77
2023/06/02 05:07:27;;;;;;;8.73;7.88;;;;;;;10.15;70.88;101190.44;6044034;23;20473;-79
2023/06/02 05:09:53;;;;;;;7.80;7.10;;;;;;;10.30;70.81;101217.84;6005670;23;20128;-77
2023/06/02 05:12:20;;;;;;;13.18;7.50;;;;;;;8.80;70.21;100962.88;6007998;23;20468;-77
2023/06/02 05:14:46;;;;;;;12.23;7.60;;;;;;;9.72;69.97;101102.25;6010027;23;20707;-78
2023/06/02 05:17:19;;;;;;;13.48;7.13;;;;;;;10.21;69.99;101185.84;6000712;23;20031;-77
2023/06/02 05:19:46;;;;;;;7.75;7.05;;;;;;;9.75;69.87;101076.78;6031085;23;20038;-78
2023/06/02 05:22:14;;;;;;;7.40;6.78;;;;;;;10.43;70.36;101218.16;6007307;23;20031;-78
2023/06/02 05:24:41;;;;;;;8.85;7.50;;;;;;;10.05;70.45;101149.78;6035597;23;20015;-77
2023/06/02 05:27:07;;;;;;;11.82;6.85;;;;;;;10.33;69.65;101170.47;6004455;23;20031;-79
2023/06/02 05:29:34;;;;;;;7.88;7.20;;;;;;;10.34;70.37;101200.16;6033121;23;20039;-77
2023/06/02 05:32:00;;;;;;;7.32;6.72;;;;;;;10.50;70.01;101202.97;6004295;23;20023;-78
2023/06/02 05:34:27;;;;;;;12.82;7.07;;;;;;;10.46;69.52;101194.38;6009449;23;20027;-77
2023/06/02 05:36:54;;;;;;;7.93;7.28;;;;;;;9.93;70.16;101109.22;6035525;23;20010;-76
2023/06/02 05:39:20;;;;;;;10.43;7.30;;;;;;;9.18;70.33;101021.53;6014974;23;20022;-76
2023/06/02 05:41:46;;;;;;;11.02;7.78;;;;;;;10.55;70.48;101229.88;6042078;23;20022;-76
2023/06/02 05:44:13;;;;;;;11.20;8.02;;;;;;;10.31;70.24;101193.28;6014842;23;20053;-78
2023/06/02 05:46:40;;;;;;;7.43;6.57;;;;;;;9.38;70.13;101017.19;6039480;23;20010;-77
2023/06/02 05:49:06;;;;;;;19.52;8.20;;;;;;;9.32;70.00;101018.34;6015226;23;20428;-76
2023/06/02 05:51:33;;;;;;;8.30;7.15;;;;;;;10.36;69.46;101167.72;6032291;23;20512;-77
2023/06/02 05:54:00;;;;;;;12.63;7.25;;;;;;;10.14;69.72;101143.28;6008731;23;20090;-76
2023/06/02 05:56:26;;;;;;;11.93;7.30;;;;;;;10.52;69.49;101204.63;6034652;23;20010;-77
2023/06/02 05:58:53;;;;;;;8.80;7.78;;;;;;;10.25;69.47;101158.56;6000297;23;20031;-78
2023/06/02 06:01:19;;;;;;;14.60;7.95;;;;;;;8.91;69.40;100970.28;6014182;23;20585;-76
2023/06/02 06:03:45;;;;;;;11.98;9.07;;;;;;;10.12;69.46;101150.38;6008482;23;20027;-76
2023/06/02 06:06:12;;;;;;;12.02;7.70;;;;;;;10.48;69.20;101196.94;6029404;23;20688;-76
2023/06/02 06:08:39;;;;;;;8.32;7.47;;;;;;;10.37;68.96;101179.91;6009828;23;20035;-77
2023/06/02 06:11:06;;;;;;;9.43;7.38;;;;;;;10.11;70.05;101165.25;6033272;23;20010;-76
2023/06/02 06:13:32;;;;;;;9.52;7.38;;;;;;;10.63;69.79;101243.53;6008147;23;20043;-76
2023/06/02 06:15:59;;;;;;;10.73;7.88;;;;;;;10.68;69.06;101222.31;6026045;23;20119;-77
2023/06/02 06:18:26;;;;;;;8.27;7.43;;;;;;;10.12;68.29;101097.91;6004629;23;20113;-76
2023/06/02 06:20:52;;;;;;;12.82;9.20;;;;;;;10.88;68.45;101217.03;6034844;23;20038;-76
2023/06/02 06:23:19;;;;;;;9.07;7.95;;;;;;;8.62;68.63;100851.09;6005468;23;20122;-76
2023/06/02 06:25:45;;;;;;;17.27;8.70;;;;;;;9.50;68.28;100985.28;6034498;23;20015;-76
2023/06/02 06:28:12;;;;;;;12.85;7.88;;;;;;;11.01;67.92;101204.19;6003221;23;20029;-77
2023/06/02 06:30:39;;;;;;;7.65;6.95;;;;;;;11.16;68.01;101216.63;6029043;23;20094;-77
2023/06/02 06:33:07;;;;;;;8.73;7.63;;;;;;;11.03;67.13;101164.75;5998615;23;20027;-77
2023/06/02 06:35:35;;;;;;;11.80;8.15;;;;;;;10.02;67.67;101036.31;5997965;23;20039;-77
2023/06/02 06:38:01;;;;;;;13.85;7.72;;;;;;;9.79;67.48;100954.31;6027916;23;20064;-77
2023/06/02 06:40:28;;;;;;;9.05;8.15;;;;;;;10.56;67.75;101092.47;6009541;23;20042;-78
2023/06/02 06:42:54;;;;;;;8.82;7.22;;;;;;;10.27;67.88;101057.91;6028847;23;20788;-77
2023/06/02 06:45:21;;;;;;;13.75;7.22;;;;;;;10.83;66.88;101110.53;6026592;23;20027;-77
2023/06/02 06:47:47;;;;;;;7.95;7.22;;;;;;;10.73;66.70;101066.31;6034193;23;20022;-77
2023/06/02 06:50:14;;;;;;;7.25;6.60;;;;;;;10.82;67.27;101108.81;6012747;23;20384;-77
2023/06/02 06:52:40;;;;;;;14.45;6.75;;;;;;;11.48;66.48;101201.09;6035677;23;20466;-77
2023/06/02 06:55:07;;;;;;;6.97;6.38;;;;;;;11.22;66.18;101151.56;6003799;23;20040;-76
2023/06/02 06:57:34;;;;;;;9.80;6.30;;;;;;;9.95;65.97;100923.84;6005238;23;20139;-77
2023/06/02 07:00:00;;;;;;;8.75;7.13;;;;;;;10.22;66.26;100968.06;6004202;23;20533;-77
2023/06/02 07:02:27;;;;;;;7.20;6.50;;;;;;;11.03;65.76;101094.69;6040449;23;20018;-77
2023/06/02 07:04:53;;;;;;;7.55;6.85;;;;;;;11.26;66.11;101111.09;6013621;23;20061;-77
2023/06/02 07:07:20;;;;;;;11.65;6.93;;;;;;;11.28;64.25;101046.19;6034199;23;20374;-76
2023/06/02 07:09:47;;;;;;;13.02;7.63;;;;;;;10.85;64.78;100995.78;6008170;23;20091;-77
2023/06/02 07:12:14;;;;;;;12.75;7.70;;;;;;;11.97;64.73;101174.22;6039884;23;20011;-77
2023/06/02 07:14:40;;;;;;;18.80;7.85;;;;;;;11.17;65.85;101063.34;6034881;23;20023;-78
2023/06/02 07:17:07;;;;;;;7.90;6.70;;;;;;;12.00;65.06;101207.41;6037482;23;20845;-77
2023/06/02 07:19:34;;;;;;;7.60;6.90;;;;;;;11.96;65.20;101186.50;6013945;23;20049;-78
2023/06/02 07:22:01;;;;;;;9.80;7.10;;;;;;;11.06;64.63;101001.75;6031971;23;20090;-77
2023/06/02 07:24:27;;;;;;;7.43;6.55;;;;;;;12.32;63.50;101140.81;6043362;23;20520;-77
2023/06/02 07:26:55;;;;;;;7.38;6.65;;;;;;;12.29;63.98;101151.53;6012475;23;20030;-77
2023/06/02 07:29:21;;;;;;;9.07;6.90;;;;;;;10.28;62.69;100771.03;6015582;23;20035;-78
2023/06/02 07:31:48;;;;;;;9.23;6.95;;;;;;;11.25;62.25;100896.59;6006748;23;20033;-77
2023/06/02 07:34:14;;;;;;;9.70;8.60;;;;;;;12.44;63.04;101151.66;6033825;23;20571;-77
2023/06/02 07:36:43;;;;;;;8.93;8.10;;;;;;;11.96;63.32;101055.00;6008374;23;20027;-77
2023/06/02 07:39:10;;;;;;;9.38;8.52;;;;;;;11.57;62.31;100955.38;6031471;23;20031;-77
2023/06/02 07:41:36;;;;;;;9.65;8.65;;;;;;;12.07;62.21;101036.03;6005475;23;20024;-77
2023/06/02 07:44:03;;;;;;;8.85;7.40;;;;;;;12.26;61.66;101008.72;6034550;23;20109;-78
2023/06/02 07:46:32;;;;;;;14.73;8.68;;;;;;;11.97;61.64;100984.84;6032615;23;20030;-76
2023/06/02 07:48:58;;;;;;;8.68;7.82;;;;;;;12.40;60.67;100971.97;6034268;23;20041;-77
2023/06/02 07:51:25;;;;;;;11.32;7.57;;;;;;;12.92;60.54;101055.13;6007611;23;20490;-77
2023/06/02 07:53:52;;;;;;;9.35;8.15;;;;;;;11.78;60.34;100877.13;6040127;23;20045;-77
2023/06/02 07:56:19;;;;;;;10.02;8.25;;;;;;;13.16;61.15;101109.06;6011054;23;20086;-77
2023/06/02 07:58:45;;;;;;;14.57;8.30;;;;;;;13.10;60.32;101035.63;6040009;23;20037;-77
2023/06/02 08:01:12;;;;;;;9.95;7.88;;;;;;;13.51;59.76;101087.78;6007942;23;20097;-77
2023/06/02 08:03:41;;;;;;;10.43;8.05;;;;;;;13.10;58.87;100966.25;6037187;23;20434;-75
2023/06/02 08:06:07;;;;;;;10.10;9.10;;;;;;;11.99;59.09;100785.72;6010050;23;20027;-77
2023/06/02 08:08:34;;;;;;;9.60;8.70;;;;;;;11.77;59.88;100828.13;6011861;23;20015;-77
2023/06/02 08:11:00;;;;;;;10.48;8.27;;;;;;;13.07;60.92;101121.88;6031936;23;20026;-77
2023/06/02 08:13:27;;;;;;;10.75;8.13;;;;;;;11.61;58.68;100749.25;6005234;23;20027;-77
2023/06/02 08:15:54;;;;;;;13.50;8.20;;;;;;;12.03;57.91;100796.88;6066797;23;20030;-78
2023/06/02 08:18:40;;;;;;;9.63;8.15;;;;;;;12.98;58.40;100970.47;6019879;23;20026;-76
2023/06/02 08:21:07;;;;;;;8.38;7.65;;;;;;;11.98;58.26;100821.66;6014206;23;20082;-77
2023/06/02 08:23:33;;;;;;;9.23;8.43;;;;;;;13.44;57.49;100982.75;6010168;23;20098;-77
2023/06/02 08:26:00;;;;;;;8.18;7.45;;;;;;;12.35;59.47;100906.44;6009208;23;20129;-77
2023/06/02 08:28:29;;;;;;;11.90;8.00;;;;;;;12.62;57.90;100892.63;6013687;23;20053;-77
2023/06/02 08:30:58;;;;;;;13.50;7.95;;;;;;;13.39;57.79;100943.50;6035210;23;20029;-77
2023/06/02 08:33:25;;;;;;;10.98;8.45;;;;;;;14.09;57.17;101079.97;6008530;23;20038;-77
2023/06/02 08:35:52;;;;;;;10.18;8.02;;;;;;;13.70;55.86;100875.69;6033992;23;20089;-77
2023/06/02 08:38:18;;;;;;;12.02;8.77;;;;;;;11.67;56.40;100585.06;6008468;23;20081;-76
2023/06/02 08:40:46;;;;;;;12.52;8.68;;;;;;;12.79;58.31;100918.00;6035861;23;20003;-77
2023/06/02 08:43:14;;;;;;;10.40;7.88;;;;;;;12.72;58.31;100914.03;6007523;23;20023;-77
2023/06/02 08:45:46;;;;;;;9.15;8.35;;;;;;;13.65;57.89;101033.34;6036257;23;20380;-76
2023/06/02 08:48:15;;;;;;;16.40;8.90;;;;;;;13.65;56.95;100975.34;6001022;23;20018;-78
2023/06/02 08:50:46;;;;;;;12.05;8.30;;;;;;;13.33;56.96;100915.72;6000370;23;20086;-78
2023/06/02 08:53:16;;;;;;;8.85;7.90;;;;;;;13.34;58.33;101029.91;6033121;23;20038;-77
2023/06/02 08:55:47;;;;;;;10.20;7.82;;;;;;;13.08;57.93;100976.06;6003613;23;20073;-77
2023/06/02 08:58:15;;;;;;;10.02;8.10;;;;;;;12.55;58.09;100933.44;6014531;23;20026;-77
2023/06/02 09:00:42;;;;;;;9.38;7.63;;;;;;;12.88;57.10;100883.22;6010259;23;22688;-77
2023/06/02 09:03:12;;;;;;;8.27;7.57;;;;;;;12.06;57.68;100786.22;6055107;23;20098;-77
2023/06/02 09:06:17;;;;;;;13.50;12.40;;;;;;;13.35;59.03;101084.34;5996416;23;20071;-77
2023/06/02 09:09:04;;;;;;;7.68;7.00;;;;;;;12.36;57.68;100876.53;6008263;23;20089;-77
2023/06/02 09:11:31;;;;;;;8.13;6.88;;;;;;;13.79;57.74;101095.84;6014799;23;20657;-77
2023/06/02 09:13:59;;;;;;;7.38;6.72;;;;;;;13.95;57.99;101109.81;6035837;23;20525;-78
2023/06/02 09:16:39;;;;;;;9.60;6.93;;;;;;;14.74;56.95;101188.66;5999517;23;20023;-77
2023/06/02 09:19:05;;;;;;;7.63;6.93;;;;;;;14.60;55.19;101003.75;6032680;23;21198;-78
2023/06/02 09:21:33;;;;;;;9.02;7.35;;;;;;;13.23;55.37;100780.13;6002766;23;20019;-76
2023/06/02 09:24:01;;;;;;;13.93;7.97;;;;;;;14.64;55.17;101012.34;6036507;23;20030;-77
2023/06/02 09:26:48;;;;;;;7.53;6.80;;;;;;;14.19;54.58;100864.63;6008798;23;20026;-77
2023/06/02 09:29:15;;;;;;;7.82;7.03;;;;;;;13.63;54.82;100806.66;6017429;23;20030;-77
2023/06/02 09:31:45;;;;;;;9.30;7.07;;;;;;;14.13;55.26;100918.69;6027450;23;20028;-77
2023/06/02 09:34:13;;;;;;;7.50;6.88;;;;;;;13.49;55.72;100891.91;6039526;23;20027;-77
2023/06/02 09:36:39;;;;;;;7.00;6.15;;;;;;;14.45;55.34;100996.78;6015848;23;20043;-77
2023/06/02 09:39:07;;;;;;;9.75;6.72;;;;;;;14.02;56.08;101000.31;6029012;23;20102;-77
2023/06/02 09:41:34;;;;;;;6.78;6.05;;;;;;;13.51;55.83;100905.84;6012776;23;20662;-77
2023/06/02 09:44:00;;;;;;;9.15;7.38;;;;;;;14.22;55.34;100948.09;6039366;23;20046;-78
2023/06/02 09:46:31;;;;;;;7.25;6.65;;;;;;;14.99;54.53;101044.38;6029999;23;20501;-77
2023/06/02 09:49:00;;;;;;;6.95;6.20;;;;;;;13.63;54.28;100825.13;6037023;23;20041;-77
2023/06/02 09:51:27;;;;;;;8.93;6.82;;;;;;;14.59;55.33;100994.13;6003357;23;20046;-77
2023/06/02 09:53:55;;;;;;;7.43;6.72;;;;;;;14.21;54.76;100902.34;6034964;23;20025;-76
2023/06/02 09:56:23;;;;;;;7.75;7.05;;;;;;;14.77;54.84;101047.56;6006600;23;20019;-77
2023/06/02 09:58:50;;;;;;;7.15;6.60;;;;;;;14.68;53.41;100940.72;6030283;23;20715;-77
2023/06/02 10:01:16;;;;;;;7.82;6.20;;;;;;;14.64;55.55;101058.09;6005851;23;20025;-77
2023/06/02 10:03:44;;;;;;;8.70;6.45;;;;;;;14.82;55.83;101089.56;6039581;23;20022;-77
2023/06/02 10:06:48;;;;;;;7.82;7.05;;;;;;;14.64;54.22;100975.34;6005265;23;20108;-76
2023/06/02 10:09:37;;;;;;;7.78;7.05;;;;;;;14.78;54.46;101003.53;6023372;23;20091;-78
2023/06/02 10:12:15;;;;;;;13.20;6.38;;;;;;;15.05;54.10;101038.69;6007040;23;20031;-77
2023/06/02 10:15:08;;;;;;;6.93;6.40;;;;;;;13.89;53.19;100746.97;6031430;23;20031;-77
2023/06/02 10:17:48;;;;;;;6.82;5.93;;;;;;;13.38;55.30;100815.25;6001922;23;20078;-77
2023/06/02 10:20:20;;;;;;;11.25;7.28;;;;;;;14.76;55.08;101053.81;6033555;23;20031;-78
2023/06/02 10:22:58;;;;;;;9.30;6.28;;;;;;;14.83;55.35;101064.81;6010823;23;20030;-76
2023/06/02 10:25:51;;;;;;;7.60;6.90;;;;;;;15.66;54.60;101139.59;6007940;23;20078;-76
2023/06/02 10:28:18;;;;;;;10.85;7.20;;;;;;;14.77;53.26;100920.75;6021622;23;20042;-77
2023/06/02 10:30:44;;;;;;;7.60;6.90;;;;;;;15.59;52.86;101069.50;6000212;23;20023;-77
2023/06/02 10:33:11;;;;;;;10.25;6.40;;;;;;;14.68;53.67;100906.38;6034373;23;20035;-78
2023/06/02 10:35:59;;;;;;;7.13;6.40;;;;;;;14.26;52.64;100797.31;6007718;23;20480;-76
2023/06/02 10:38:33;;;;;;;9.45;6.63;;;;;;;14.05;53.32;100782.88;6011591;23;20031;-78
2023/06/02 10:41:00;;;;;;;12.15;6.47;;;;;;;15.00;53.82;100972.09;6009531;23;20031;-77
2023/06/02 10:43:27;;;;;;;6.63;6.13;;;;;;;15.23;54.85;101128.34;6030802;23;20031;-77
2023/06/02 10:46:21;;;;;;;7.85;6.10;;;;;;;15.03;53.96;101003.59;6004772;23;20138;-78
2023/06/02 10:48:48;;;;;;;14.27;6.55;;;;;;;14.25;53.49;100859.00;6006386;23;20051;-77
2023/06/02 10:51:16;;;;;;;7.25;6.65;;;;;;;15.41;53.90;101100.69;6018014;23;20039;-77
2023/06/02 10:54:07;;;;;;;8.00;6.00;;;;;;;15.27;52.75;100942.94;6012518;23;20026;-76
2023/06/02 10:56:36;;;;;;;9.20;6.10;;;;;;;15.32;52.51;100974.38;6030749;23;20055;-77
2023/06/02 10:59:03;;;;;;;6.72;6.22;;;;;;;15.29;52.98;100979.84;6008674;23;20087;-75
2023/06/02 11:01:49;;;;;;;6.95;6.25;;;;;;;15.60;53.08;101023.59;6036909;23;20105;-77
2023/06/02 11:04:35;;;;;;;7.32;6.72;;;;;;;15.48;52.45;100945.09;6015355;23;20034;-77
2023/06/02 11:07:21;;;;;;;7.38;6.68;;;;;;;14.96;51.72;100822.59;6028152;23;20057;-77
2023/06/02 11:09:50;;;;;;;9.80;7.03;;;;;;;15.25;53.02;100936.91;6008979;23;20042;-77
2023/06/02 11:12:17;;;;;;;9.13;6.38;;;;;;;15.41;53.08;100984.31;6034628;23;20528;-77
2023/06/02 11:15:02;;;;;;;8.65;6.20;;;;;;;16.04;52.46;101063.88;6005847;23;20045;-77
2023/06/02 11:17:33;;;;;;;6.75;6.10;;;;;;;15.16;52.71;100897.91;6032188;23;20481;-77
2023/06/02 11:20:04;;;;;;;6.47;5.88;;;;;;;16.13;52.51;101052.63;6021639;23;20017;-77
2023/06/02 11:22:33;;;;;;;6.57;6.07;;;;;;;14.68;51.41;100739.13;6037704;23;20093;-77
2023/06/02 11:25:01;;;;;;;6.53;6.03;;;;;;;15.79;51.14;100933.22;6006976;23;20669;-79
2023/06/02 11:27:47;;;;;;;7.82;6.30;;;;;;;15.31;51.18;100825.44;6007848;23;20060;-76
2023/06/02 11:30:18;;;;;;;7.60;6.18;;;;;;;16.77;51.04;101064.91;6039796;23;20030;-78